createdAt,value
2023-05-15T00:02:00.164Z,97.00
2023-05-15T00:04:27.051Z,97.10
2023-05-15T00:06:54.012Z,97.10
2023-05-15T00:09:23.455Z,97.10
2023-05-15T00:11:52.488Z,97.20
2023-05-15T00:14:23.077Z,97.10
2023-05-15T00:16:52.656Z,97.20
2023-05-15T00:19:22.228Z,97.40
2023-05-15T00:21:49.170Z,97.30
2023-05-15T00:24:21.010Z,97.60
2023-05-15T00:26:47.951Z,97.50
2023-05-15T00:29:17.403Z,97.90
2023-05-15T00:31:47.679Z,98.30
2023-05-15T00:34:14.658Z,98.10
2023-05-15T00:36:41.551Z,98.10
2023-05-15T00:39:08.409Z,98.40
2023-05-15T00:41:36.622Z,98.30
2023-05-15T00:44:06.729Z,98.60
2023-05-15T00:46:36.287Z,98.60
2023-05-15T00:49:07.037Z,98.90
2023-05-15T00:51:34.824Z,99.00
2023-05-15T00:54:04.599Z,99.10
2023-05-15T00:56:32.890Z,99.10
2023-05-15T00:59:00.882Z,99.20
2023-05-15T01:01:28.977Z,99.20
2023-05-15T01:03:55.935Z,99.30
2023-05-15T01:06:22.856Z,99.60
2023-05-15T01:08:50.355Z,99.60
2023-05-15T01:11:21.091Z,99.70
2023-05-15T01:13:48.022Z,99.90
2023-05-15T01:16:14.950Z,99.80
2023-05-15T01:18:41.926Z,99.70
2023-05-15T01:21:35.166Z,99.70
2023-05-15T01:24:39.837Z,99.90
2023-05-15T01:27:28.492Z,99.70
2023-05-15T01:30:08.761Z,99.90
2023-05-15T01:32:48.059Z,99.90
2023-05-15T01:35:28.585Z,99.90
2023-05-15T01:38:14.880Z,99.90
2023-05-15T01:40:47.873Z,99.90
2023-05-15T01:43:21.967Z,99.90
2023-05-15T01:45:48.851Z,99.90
2023-05-15T01:48:17.557Z,99.90
2023-05-15T01:50:47.218Z,99.90
2023-05-15T01:53:15.140Z,99.90
2023-05-15T01:55:42.811Z,99.90
2023-05-15T01:58:10.055Z,99.90
2023-05-15T02:00:38.125Z,99.90
2023-05-15T02:03:08.854Z,99.90
2023-05-15T02:05:36.115Z,99.90
2023-05-15T02:08:05.893Z,99.90
2023-05-15T02:10:33.700Z,99.90
2023-05-15T02:13:03.620Z,99.90
2023-05-15T02:15:30.837Z,99.90
2023-05-15T02:18:02.806Z,99.90
2023-05-15T02:20:30.692Z,99.90
2023-05-15T02:22:57.606Z,99.90
2023-05-15T02:25:42.493Z,99.90
2023-05-15T02:28:20.861Z,99.90
2023-05-15T02:31:04.439Z,99.90
2023-05-15T02:34:12.298Z,99.90
2023-05-15T02:36:46.845Z,99.90
2023-05-15T02:39:20.920Z,99.90
2023-05-15T02:41:48.588Z,99.90
2023-05-15T02:44:20.825Z,99.90
2023-05-15T02:46:52.582Z,99.90
2023-05-15T02:49:20.631Z,99.90
2023-05-15T02:51:47.483Z,99.90
2023-05-15T02:54:17.550Z,99.90
2023-05-15T02:56:44.443Z,99.90
2023-05-15T02:59:19.723Z,99.90
2023-05-15T03:01:49.285Z,99.90
2023-05-15T03:04:16.437Z,99.90
2023-05-15T03:06:43.299Z,99.90
2023-05-15T03:09:12.525Z,99.90
2023-05-15T03:16:07.661Z,99.90
2023-05-15T03:18:34.532Z,99.90
2023-05-15T03:21:01.339Z,99.90
2023-05-15T03:23:32.880Z,99.90
2023-05-15T03:25:59.718Z,99.90
2023-05-15T03:28:28.941Z,99.90
2023-05-15T03:30:58.393Z,99.90
2023-05-15T03:33:28.088Z,99.90
2023-05-15T03:35:57.185Z,99.90
2023-05-15T03:38:24.027Z,99.90
2023-05-15T03:40:51.259Z,99.90
2023-05-15T03:43:18.422Z,99.90
2023-05-15T03:45:45.312Z,99.90
2023-05-15T03:48:14.765Z,99.90
2023-05-15T03:50:41.886Z,99.90
2023-05-15T03:53:08.826Z,99.90
2023-05-15T03:55:36.091Z,99.90
2023-05-15T03:58:03.179Z,99.90
2023-05-15T04:00:30.118Z,99.90
2023-05-15T04:03:02.016Z,99.90
2023-05-15T04:05:31.273Z,99.90
2023-05-15T04:08:00.305Z,99.90
2023-05-15T04:10:32.702Z,99.90
2023-05-15T04:13:01.829Z,99.90
2023-05-15T04:15:28.879Z,99.90
2023-05-15T04:18:00.890Z,99.90
2023-05-15T04:20:33.675Z,99.90
2023-05-15T04:23:00.828Z,99.90
2023-05-15T04:25:29.780Z,99.90
2023-05-15T04:27:59.084Z,99.90
2023-05-15T04:30:28.444Z,99.90
2023-05-15T04:32:55.589Z,99.90
2023-05-15T04:35:24.879Z,99.90
2023-05-15T04:37:51.901Z,99.90
2023-05-15T04:40:23.516Z,99.90
2023-05-15T04:42:50.575Z,99.90
2023-05-15T04:45:17.627Z,99.90
2023-05-15T04:47:44.612Z,99.90
2023-05-15T04:50:11.500Z,99.90
2023-05-15T04:52:45.824Z,99.90
2023-05-15T04:55:14.965Z,99.90
2023-05-15T04:57:41.815Z,99.90
2023-05-15T05:00:12.284Z,99.90
2023-05-15T05:02:40.171Z,99.90
2023-05-15T05:05:14.612Z,99.90
2023-05-15T05:07:42.425Z,99.90
2023-05-15T05:10:10.031Z,99.90
2023-05-15T05:12:36.969Z,99.90
2023-05-15T05:15:04.268Z,99.90
2023-05-15T05:17:31.640Z,99.90
2023-05-15T05:20:01.212Z,99.90
2023-05-15T05:22:28.066Z,99.90
2023-05-15T05:24:54.883Z,99.90
2023-05-15T05:27:24.242Z,99.90
2023-05-15T05:29:52.762Z,99.90
2023-05-15T05:32:19.826Z,99.90
2023-05-15T05:34:49.221Z,99.90
2023-05-15T05:37:18.238Z,99.90
2023-05-15T05:39:45.123Z,99.90
2023-05-15T05:42:14.290Z,99.90
2023-05-15T05:44:41.117Z,99.90
2023-05-15T05:47:12.355Z,99.90
2023-05-15T05:49:39.936Z,99.90
2023-05-15T05:52:11.145Z,99.90
2023-05-15T05:54:40.975Z,99.90
2023-05-15T05:57:11.471Z,99.90
2023-05-15T05:59:38.551Z,99.90
2023-05-15T06:02:08.888Z,99.90
2023-05-15T06:04:38.389Z,99.90
2023-05-15T06:07:05.244Z,99.90
2023-05-15T06:09:32.672Z,99.90
2023-05-15T06:12:04.821Z,99.90
2023-05-15T06:14:34.354Z,99.90
2023-05-15T06:17:04.021Z,99.90
2023-05-15T06:19:31.515Z,99.90
2023-05-15T06:21:58.470Z,99.90
2023-05-15T06:24:27.372Z,99.90
2023-05-15T06:26:54.242Z,99.90
2023-05-15T06:29:23.863Z,99.90
2023-05-15T06:31:53.744Z,99.90
2023-05-15T06:34:20.628Z,99.90
2023-05-15T06:36:49.956Z,99.90
2023-05-15T06:39:19.335Z,99.90
2023-05-15T06:41:48.331Z,99.90
2023-05-15T06:44:18.965Z,99.90
2023-05-15T06:46:50.679Z,99.90
2023-05-15T06:49:19.704Z,99.90
2023-05-15T06:51:46.723Z,99.90
2023-05-15T06:54:13.908Z,99.90
2023-05-15T06:56:40.837Z,99.90
2023-05-15T06:59:09.886Z,99.90
2023-05-15T07:01:41.506Z,99.90
2023-05-15T07:04:08.724Z,99.90
2023-05-15T07:06:36.324Z,99.90
2023-05-15T07:09:03.374Z,99.90
2023-05-15T07:11:30.444Z,99.90
2023-05-15T07:13:59.498Z,99.90
2023-05-15T07:16:26.390Z,99.90
2023-05-15T07:18:55.865Z,99.90
2023-05-15T07:21:22.833Z,99.90
2023-05-15T07:23:49.721Z,99.90
2023-05-15T07:26:31.132Z,99.90
2023-05-15T07:29:04.267Z,99.90
2023-05-15T07:31:33.783Z,99.90
2023-05-15T07:34:00.725Z,99.90
2023-05-15T07:36:27.575Z,99.90
2023-05-15T07:38:59.198Z,99.90
2023-05-15T07:41:26.174Z,99.90
2023-05-15T07:43:53.053Z,99.90
2023-05-15T07:46:19.903Z,99.90
2023-05-15T07:48:46.865Z,99.90
2023-05-15T07:51:13.876Z,99.90
2023-05-15T07:53:43.179Z,99.90
2023-05-15T07:56:10.637Z,99.20
2023-05-15T07:58:40.252Z,99.20
2023-05-15T08:01:09.435Z,99.90
2023-05-15T08:03:36.506Z,99.70
2023-05-15T08:06:03.616Z,99.50
2023-05-15T08:08:33.547Z,99.90
2023-05-15T08:11:02.556Z,99.30
2023-05-15T08:13:29.463Z,99.90
2023-05-15T08:15:56.638Z,99.90
2023-05-15T08:18:23.567Z,99.90
2023-05-15T08:20:50.419Z,99.90
2023-05-15T08:23:21.902Z,99.90
2023-05-15T08:25:54.532Z,99.90
2023-05-15T08:28:21.443Z,99.40
2023-05-15T08:30:52.960Z,99.30
2023-05-15T08:33:19.956Z,99.00
2023-05-15T08:35:46.877Z,99.30
2023-05-15T08:38:13.687Z,99.90
2023-05-15T08:44:59.758Z,99.90
2023-05-15T08:47:29.636Z,98.90
2023-05-15T08:50:07.422Z,99.90
2023-05-15T08:52:34.599Z,99.70
2023-05-15T08:55:02.154Z,99.90
2023-05-15T08:57:29.693Z,99.80
2023-05-15T09:00:00.255Z,98.10
2023-05-15T09:02:30.285Z,97.70
2023-05-15T09:04:57.228Z,97.30
2023-05-15T09:07:24.555Z,98.90
2023-05-15T09:09:52.179Z,98.90
2023-05-15T09:12:24.034Z,99.50
2023-05-15T09:15:07.646Z,98.40
2023-05-15T09:17:34.523Z,97.50
2023-05-15T09:20:05.857Z,98.40
2023-05-15T09:22:36.504Z,97.40
2023-05-15T09:25:04.119Z,97.50
2023-05-15T09:27:40.654Z,98.90
2023-05-15T09:30:11.334Z,99.90
2023-05-15T09:32:41.214Z,99.20
2023-05-15T09:35:34.648Z,98.50
2023-05-15T09:38:03.236Z,98.70
2023-05-15T09:40:31.727Z,98.00
2023-05-15T09:42:59.279Z,98.20
2023-05-15T09:45:29.854Z,98.30
2023-05-15T09:48:02.508Z,98.60
2023-05-15T09:50:39.533Z,99.70
2023-05-15T09:53:14.154Z,99.40
2023-05-15T09:55:45.425Z,98.90
2023-05-15T09:58:14.379Z,99.00
2023-05-15T10:00:47.801Z,99.10
2023-05-15T10:03:18.630Z,99.00
2023-05-15T10:05:45.670Z,98.20
2023-05-15T10:08:15.614Z,97.80
2023-05-15T10:10:43.621Z,98.20
2023-05-15T10:13:13.643Z,97.90
2023-05-15T10:15:40.970Z,98.00
2023-05-15T10:18:13.858Z,98.00
2023-05-15T10:20:41.125Z,97.80
2023-05-15T10:23:16.295Z,96.90
2023-05-15T10:25:56.699Z,97.10
2023-05-15T10:28:27.084Z,97.20
2023-05-15T10:30:56.032Z,96.80
2023-05-15T10:33:23.809Z,96.30
2023-05-15T10:35:52.143Z,96.60
2023-05-15T10:38:20.461Z,96.00
2023-05-15T10:40:48.030Z,95.40
2023-05-15T10:43:15.608Z,95.20
2023-05-15T10:45:45.706Z,95.80
2023-05-15T10:48:15.508Z,95.40
2023-05-15T10:50:42.484Z,96.20
2023-05-15T10:53:17.553Z,96.50
2023-05-15T10:55:46.068Z,97.00
2023-05-15T10:58:12.926Z,97.10
2023-05-15T11:00:45.242Z,96.20
2023-05-15T11:03:16.118Z,95.80
2023-05-15T11:06:11.526Z,97.00
2023-05-15T11:13:04.869Z,95.30
2023-05-15T11:15:52.445Z,94.80
2023-05-15T11:18:20.748Z,95.00
2023-05-15T11:20:52.055Z,96.10
2023-05-15T11:23:25.464Z,96.40
2023-05-15T11:26:03.807Z,95.70
2023-05-15T11:28:31.658Z,95.10
2023-05-15T11:31:09.152Z,95.50
2023-05-15T11:33:39.710Z,95.40
2023-05-15T11:36:10.386Z,95.80
2023-05-15T11:38:39.773Z,96.20
2023-05-15T11:41:18.701Z,95.80
2023-05-15T11:43:46.042Z,96.00
2023-05-15T11:46:18.303Z,95.70
2023-05-15T11:48:49.936Z,95.40
2023-05-15T11:51:27.389Z,96.10
2023-05-15T11:53:57.167Z,95.90
2023-05-15T11:56:29.695Z,95.40
2023-05-15T11:59:03.807Z,95.10
2023-05-15T12:01:40.756Z,95.10
2023-05-15T12:04:20.106Z,94.40
2023-05-15T12:06:49.798Z,93.70
2023-05-15T12:09:21.751Z,93.90
2023-05-15T12:11:55.867Z,93.10
2023-05-15T12:14:29.520Z,92.80
2023-05-15T12:17:02.933Z,93.10
2023-05-15T12:19:34.691Z,92.50
2023-05-15T12:22:08.360Z,91.70
2023-05-15T12:24:41.412Z,92.40
2023-05-15T12:27:09.572Z,92.00
2023-05-15T12:29:39.106Z,91.70
2023-05-15T12:32:09.520Z,90.90
2023-05-15T12:34:38.959Z,92.50
2023-05-15T12:37:13.505Z,91.60
2023-05-15T12:40:11.738Z,90.60
2023-05-15T12:42:45.696Z,92.60
2023-05-15T12:45:16.926Z,91.90
2023-05-15T12:47:44.963Z,91.20
2023-05-15T12:50:13.514Z,91.20
2023-05-15T12:52:40.856Z,90.70
2023-05-15T12:55:08.500Z,91.20
2023-05-15T12:57:37.437Z,91.10
2023-05-15T13:00:05.564Z,91.50
2023-05-15T13:02:32.978Z,91.80
2023-05-15T13:05:04.006Z,91.30
2023-05-15T13:07:31.145Z,91.80
2023-05-15T13:10:08.902Z,90.20
2023-05-15T13:12:45.225Z,91.20
2023-05-15T13:15:29.845Z,90.60
2023-05-15T13:18:03.030Z,91.50
2023-05-15T13:20:36.555Z,90.60
2023-05-15T13:23:03.825Z,91.90
2023-05-15T13:25:33.946Z,89.60
2023-05-15T13:28:06.700Z,88.90
2023-05-15T13:30:39.034Z,85.80
2023-05-15T13:33:06.075Z,87.00
2023-05-15T13:35:39.191Z,88.00
2023-05-15T13:38:11.342Z,88.50
2023-05-15T13:40:39.035Z,89.40
2023-05-15T13:43:08.651Z,88.30
2023-05-15T13:45:35.774Z,89.10
2023-05-15T13:48:04.201Z,86.00
2023-05-15T13:50:33.398Z,88.40
2023-05-15T13:53:02.713Z,85.80
2023-05-15T13:55:29.765Z,85.30
2023-05-15T13:57:56.684Z,87.20
2023-05-15T14:00:23.729Z,90.50
2023-05-15T14:02:53.277Z,91.40
2023-05-15T14:05:22.299Z,91.70
2023-05-15T14:07:49.227Z,91.00
2023-05-15T14:10:16.141Z,88.50
2023-05-15T14:12:46.530Z,90.40
2023-05-15T14:15:13.545Z,87.80
2023-05-15T14:17:43.036Z,81.30
2023-05-15T14:20:11.632Z,74.10
2023-05-15T14:22:39.200Z,75.10
2023-05-15T14:25:06.647Z,75.70
2023-05-15T14:27:36.009Z,74.80
2023-05-15T14:30:05.807Z,75.10
2023-05-15T14:32:35.252Z,74.40
2023-05-15T14:35:05.140Z,74.00
2023-05-15T14:37:35.841Z,76.60
2023-05-15T14:40:02.984Z,80.40
2023-05-15T14:42:29.871Z,82.80
2023-05-15T14:44:56.719Z,83.60
2023-05-15T14:47:28.169Z,87.10
2023-05-15T14:49:57.774Z,89.30
2023-05-15T14:52:26.724Z,90.70
2023-05-15T14:55:04.921Z,91.00
2023-05-15T14:57:37.668Z,91.50
2023-05-15T15:00:09.400Z,91.30
2023-05-15T15:02:41.003Z,92.10
2023-05-15T15:05:08.385Z,92.50
2023-05-15T15:08:11.039Z,92.30
2023-05-15T15:10:39.193Z,91.90
2023-05-15T15:13:07.449Z,91.90
2023-05-15T15:15:34.994Z,92.40
2023-05-15T15:18:02.294Z,92.40
2023-05-15T15:20:30.331Z,92.90
2023-05-15T15:22:57.417Z,92.70
2023-05-15T15:25:26.799Z,93.50
2023-05-15T15:27:53.702Z,93.70
2023-05-15T15:30:22.979Z,93.40
2023-05-15T15:32:52.092Z,93.50
2023-05-15T15:35:19.301Z,93.80
2023-05-15T15:37:48.225Z,94.00
2023-05-15T15:40:23.598Z,94.20
2023-05-15T15:42:50.815Z,93.80
2023-05-15T15:45:17.723Z,93.90
2023-05-15T15:47:44.722Z,94.30
2023-05-15T15:50:11.588Z,94.00
2023-05-15T15:52:38.501Z,94.00
2023-05-15T15:55:07.278Z,94.00
2023-05-15T15:57:34.193Z,94.20
2023-05-15T16:00:03.320Z,93.60
2023-05-15T16:02:31.766Z,93.90
2023-05-15T16:05:01.380Z,93.50
2023-05-15T16:07:28.352Z,94.20
2023-05-15T16:10:10.588Z,94.10
2023-05-15T16:12:40.740Z,93.90
2023-05-15T16:15:20.956Z,93.90
2023-05-15T16:17:53.788Z,93.60
2023-05-15T16:20:24.660Z,93.70
2023-05-15T16:22:56.628Z,94.10
2023-05-15T16:25:23.756Z,94.30
2023-05-15T16:27:52.830Z,94.20
2023-05-15T16:30:19.865Z,94.70
2023-05-15T16:32:49.053Z,95.00
2023-05-15T16:35:20.562Z,95.50
2023-05-15T16:37:47.585Z,96.00
2023-05-15T16:40:14.642Z,96.20
2023-05-15T16:42:41.568Z,95.90
2023-05-15T16:45:08.899Z,96.10
2023-05-15T16:47:38.332Z,96.40
2023-05-15T16:50:07.024Z,96.80
2023-05-15T16:52:38.837Z,96.90
2023-05-15T16:55:08.344Z,96.80
2023-05-15T16:57:35.536Z,96.60
2023-05-15T17:00:02.460Z,96.90
2023-05-15T17:02:29.345Z,96.90
2023-05-15T17:04:58.533Z,97.00
2023-05-15T17:07:25.720Z,97.30
2023-05-15T17:09:55.717Z,97.30
2023-05-15T17:12:23.017Z,97.80
2023-05-15T17:14:49.803Z,98.30
2023-05-15T17:17:18.887Z,98.90
2023-05-15T17:19:48.342Z,99.50
2023-05-15T17:22:15.399Z,99.80
2023-05-15T17:24:50.845Z,99.90
2023-05-15T17:27:19.373Z,99.90
2023-05-15T17:29:46.685Z,99.90
2023-05-15T17:32:14.265Z,99.90
2023-05-15T17:34:43.357Z,99.90
2023-05-15T17:37:15.935Z,99.90
2023-05-15T17:39:47.850Z,99.90
2023-05-15T17:42:14.827Z,99.90
2023-05-15T17:44:41.762Z,99.90
2023-05-15T17:47:13.238Z,99.90
2023-05-15T17:49:42.308Z,99.90
2023-05-15T17:52:11.425Z,99.90
2023-05-15T17:54:41.086Z,99.90
2023-05-15T17:57:10.618Z,99.90
2023-05-15T17:59:37.536Z,99.90
2023-05-15T18:02:04.766Z,99.90
2023-05-15T18:04:31.685Z,99.90
2023-05-15T18:06:58.541Z,99.90
2023-05-15T18:09:28.098Z,99.90
2023-05-15T18:11:55.044Z,99.90
2023-05-15T18:14:21.871Z,99.90
2023-05-15T18:16:48.775Z,99.90
2023-05-15T18:19:15.782Z,99.90
2023-05-15T18:21:45.014Z,99.90
2023-05-15T18:24:14.104Z,99.90
2023-05-15T18:26:43.216Z,99.90
2023-05-15T18:29:10.195Z,99.90
2023-05-15T18:31:37.219Z,99.90
2023-05-15T18:34:04.156Z,99.90
2023-05-15T18:36:31.237Z,99.90
2023-05-15T18:39:00.141Z,99.90
2023-05-15T18:41:27.155Z,99.90
2023-05-15T18:43:56.510Z,99.90
2023-05-15T18:46:25.645Z,99.90
2023-05-15T18:48:52.576Z,99.90
2023-05-15T18:51:19.476Z,99.90
2023-05-15T18:53:46.352Z,99.90
2023-05-15T18:56:15.422Z,99.90
2023-05-15T18:58:47.323Z,99.90
2023-05-15T19:01:14.350Z,99.90
2023-05-15T19:03:41.365Z,99.90
2023-05-15T19:06:08.285Z,99.90
2023-05-15T19:08:35.264Z,99.90
2023-05-15T19:11:02.136Z,99.90
2023-05-15T19:13:32.850Z,99.90
2023-05-15T19:15:59.856Z,99.90
2023-05-15T19:18:26.696Z,99.90
2023-05-15T19:20:54.243Z,99.90
2023-05-15T19:23:24.517Z,99.90
2023-05-15T19:25:51.521Z,99.90
2023-05-15T19:28:18.550Z,99.90
2023-05-15T19:30:47.977Z,99.90
2023-05-15T19:33:18.274Z,99.90
2023-05-15T19:35:45.364Z,99.90
2023-05-15T19:38:12.299Z,99.90
2023-05-15T19:40:39.223Z,99.90
2023-05-15T19:43:08.594Z,99.90
2023-05-15T19:45:35.558Z,99.90
2023-05-15T19:48:02.531Z,99.90
2023-05-15T19:50:30.460Z,99.90
2023-05-15T19:52:58.342Z,99.90
2023-05-15T19:55:25.599Z,99.90
2023-05-15T19:57:56.162Z,99.90
2023-05-15T20:00:23.510Z,99.90
2023-05-15T20:02:52.957Z,99.90
2023-05-15T20:05:19.969Z,99.90
2023-05-15T20:07:46.866Z,99.90
2023-05-15T20:10:18.440Z,99.90
2023-05-15T20:12:50.145Z,99.90
2023-05-15T20:15:17.476Z,99.90
2023-05-15T20:17:44.541Z,99.90
2023-05-15T20:20:12.124Z,99.90
2023-05-15T20:22:41.497Z,99.90
2023-05-15T20:25:11.503Z,99.90
2023-05-15T20:27:41.606Z,99.90
2023-05-15T20:30:08.963Z,99.90
2023-05-15T20:32:36.188Z,99.90
2023-05-15T20:35:06.796Z,99.90
2023-05-15T20:37:42.675Z,99.90
2023-05-15T20:40:15.706Z,99.90
2023-05-15T20:42:45.397Z,99.90
2023-05-15T20:45:14.943Z,99.90
2023-05-15T20:47:41.951Z,99.90
2023-05-15T20:50:09.615Z,99.90
2023-05-15T20:52:39.196Z,99.90
2023-05-15T20:55:16.159Z,99.90
2023-05-15T20:57:44.622Z,99.90
2023-05-15T21:00:16.260Z,99.90
2023-05-15T21:02:43.948Z,99.90
2023-05-15T21:05:10.950Z,99.90
2023-05-15T21:07:40.588Z,99.90
2023-05-15T21:10:08.259Z,99.90
2023-05-15T21:12:35.296Z,99.90
2023-05-15T21:15:02.932Z,99.90
2023-05-15T21:17:32.252Z,99.90
2023-05-15T21:20:04.910Z,99.90
2023-05-15T21:22:32.095Z,99.90
2023-05-15T21:24:58.953Z,99.90
2023-05-15T21:27:28.304Z,99.90
2023-05-15T21:29:55.326Z,99.90
2023-05-15T21:32:24.799Z,99.90
2023-05-15T21:34:54.227Z,99.90
2023-05-15T21:37:21.141Z,99.90
2023-05-15T21:39:50.337Z,99.90
2023-05-15T21:42:22.086Z,99.90
2023-05-15T21:44:51.436Z,99.90
2023-05-15T21:47:20.954Z,99.90
2023-05-15T21:49:47.903Z,99.90
2023-05-15T21:52:17.164Z,99.90
2023-05-15T21:54:45.260Z,99.90
2023-05-15T21:57:12.089Z,99.90
2023-05-15T21:59:41.280Z,99.90
2023-05-15T22:02:12.825Z,99.90
2023-05-15T22:04:42.154Z,99.90
2023-05-15T22:07:14.341Z,99.90
2023-05-15T22:09:41.277Z,99.90
2023-05-15T22:12:12.814Z,99.90
2023-05-15T22:14:46.989Z,99.90
2023-05-15T22:17:26.338Z,99.90
2023-05-15T22:19:53.602Z,99.90
2023-05-15T22:22:25.055Z,99.90
2023-05-15T22:24:54.063Z,99.90
2023-05-15T22:27:20.835Z,99.90
2023-05-15T22:29:50.028Z,99.90
2023-05-15T22:32:19.263Z,99.90
2023-05-15T22:34:46.134Z,99.90
2023-05-15T22:37:13.076Z,99.90
2023-05-15T22:39:40.017Z,99.90
2023-05-15T22:42:09.362Z,99.90
2023-05-15T22:44:40.913Z,99.90
2023-05-15T22:47:07.839Z,99.90
2023-05-15T22:49:34.799Z,99.90
2023-05-15T22:52:01.722Z,99.90
2023-05-15T22:54:30.819Z,99.90
2023-05-15T22:56:57.594Z,99.90
2023-05-15T22:59:24.452Z,99.90
2023-05-15T23:01:56.115Z,99.90
2023-05-15T23:04:25.006Z,99.90
2023-05-15T23:06:51.809Z,99.90
2023-05-15T23:09:18.675Z,99.90
2023-05-15T23:11:48.054Z,99.90
2023-05-15T23:14:15.843Z,99.90
2023-05-15T23:16:45.273Z,99.90
2023-05-15T23:19:12.246Z,99.90
2023-05-15T23:21:41.574Z,99.90
2023-05-15T23:24:08.520Z,99.90
2023-05-15T23:26:38.134Z,99.90
2023-05-15T23:29:04.998Z,99.90
2023-05-15T23:31:33.506Z,99.90
2023-05-15T23:34:00.479Z,99.90
2023-05-15T23:36:27.411Z,99.90
2023-05-15T23:38:56.482Z,99.90
2023-05-15T23:41:23.427Z,99.90
2023-05-15T23:43:52.428Z,99.90
2023-05-15T23:46:19.566Z,99.90
2023-05-15T23:48:46.481Z,99.90
2023-05-15T23:51:15.751Z,99.90
2023-05-15T23:53:42.627Z,99.90
2023-05-15T23:56:11.621Z,99.90
2023-05-15T23:58:41.348Z,99.90
